Etusivu
METAR-TAF:

METAR-TAF

Lentoasemat :

Tarbes Lourdes, Ranska

Leveyspiiri: 43-11N, Pituuspiiri: 000-00W, korkeus merenpinnasta: 379 m

Tämänhetkinen sää

Tämä raportti tehtiin 15 minuuttia sitten, kello 21.30 UTC
Tuuli 4 kn etelästä
Lämpötila 17°C
Kosteus 94%
Ilmanpaine 1020 hPa
Näkyvyys 10 km tai enemmän
Hajonneita pilviä 4100 ft:n korkeudessa

METAR: LFBT 222130Z AUTO 18004KT 9999 BKN041 17/16 Q1020 NOSIG

Aika: 23:45 (21:45 UTC)

Sääennuste

Tämä raportti tehtiin 4 tuntia ja 45 minuuttia sitten, kello 17.00 UTC
Ennuste voimassa 22. päivästä klo 18 UTC - 23. päivään klo 18 UTC
Tuuli 2 kn eri suunnista
Näkyvyys 10 km tai enemmän
Hajanaisia pilviä 4000 ft:n korkeudessa
Tulossa
22. päivästä klo 18 UTC - 22. päivään klo 20 UTC
Näkyvyys 10 km tai enemmän
ei pilviä alle 1500 m:ssä eikä cumulonimbus-pilviä
Tulossa
23. päivästä klo 08 UTC - 23. päivään klo 10 UTC
Tuuli 10 kn idästä

TAF: LFBT 221700Z 2218/2318 VRB02KT 9999 SCT040 BECMG 2218/2220 CAVOK BECMG 2308/2310 09010KT

Säähavainnot ja -ennusteet yli 4000 lentoasemalta (METAR- ja TAF-raportit).

Käytössä olevat sääasemat on merkitty karttaan keltaisilla ja punaisilla pisteillä.

Aseta hiiri pisteen päälle nähdäksesi sääaseman nimen.

Klikkaa sitten nähdäksesi säähavainnot ja -ennusteet.

Kartan vaihtaminen: klikkaa mustalla rastilla varustettuja vihreitä pisteitä, niin voit zoomata sisään; viivalla varustettua vihreää pistettä, niin voit zoomata ulos tai vihreitä nuolia, niin pääset viereisille kartoille.


METAR-TAF: